Time;durP1;ratioP1;P1;durP2;ratioP2;P2;SDS_P1;SDS_P2;PMS_P1;PMS_P2;Temp;Humidity;BMP_temperature;BMP_pressure;BME280_temperature;BME280_humidity;BME280_pressure;Samples;Min_cycle;Max_cycle;Signal;HPM_P1;HPM_P2
2021/12/04 00:02:00;;;;;;;14.35;9.23;;;;;;;0.48;100.00;99510.91;5069301;28;20444;-63
2021/12/04 00:04:33;;;;;;;16.92;8.68;;;;;;;0.49;100.00;99503.09;5050487;28;20135;-64
2021/12/04 00:07:00;;;;;;;13.75;9.73;;;;;;;0.60;100.00;99499.28;5069765;28;20059;-64
2021/12/04 00:09:29;;;;;;;16.50;9.63;;;;;;;0.58;100.00;99495.88;5062498;28;20064;-65
2021/12/04 00:12:00;;;;;;;17.60;10.38;;;;;;;0.62;100.00;99507.84;5053082;28;20048;-65
2021/12/04 00:14:28;;;;;;;14.88;9.05;;;;;;;0.59;100.00;99487.25;5062672;28;20131;-65
2021/12/04 00:16:56;;;;;;;19.83;10.90;;;;;;;0.57;100.00;99502.81;5063930;28;21874;-64
2021/12/04 00:19:24;;;;;;;15.50;9.70;;;;;;;0.58;100.00;99490.72;5061564;28;20784;-64
2021/12/04 00:21:52;;;;;;;17.95;10.23;;;;;;;0.55;100.00;99494.28;5069021;28;20147;-63
2021/12/04 00:24:26;;;;;;;16.25;10.23;;;;;;;0.56;100.00;99501.13;5057563;28;20084;-64
2021/12/04 00:26:54;;;;;;;13.70;10.32;;;;;;;0.50;100.00;99499.63;5070904;28;20127;-63
2021/12/04 00:29:22;;;;;;;16.25;8.93;;;;;;;0.48;100.00;99496.22;5063193;28;20056;-63
2021/12/04 00:31:54;;;;;;;16.45;10.02;;;;;;;0.52;100.00;99484.00;5047082;28;20045;-64
2021/12/04 00:34:23;;;;;;;18.17;10.10;;;;;;;0.58;100.00;99491.56;5064030;28;20595;-65
2021/12/04 00:37:03;;;;;;;15.90;10.00;;;;;;;0.58;100.00;99488.97;5069074;28;20056;-65
2021/12/04 00:50:35;;;;;;;;;;;;;;;0.65;100.00;99479.25;5036940;28;20136;-66
2021/12/04 00:53:02;;;;;;;12.80;9.13;;;;;;;0.63;100.00;99481.03;5066546;28;20609;-64
2021/12/04 00:55:29;;;;;;;13.55;9.43;;;;;;;0.64;100.00;99477.56;5060524;28;20144;-65
2021/12/04 00:57:56;;;;;;;17.52;10.23;;;;;;;0.62;100.00;99474.16;5069818;28;20051;-63
2021/12/04 01:00:24;;;;;;;18.02;10.75;;;;;;;0.63;100.00;99474.13;5059162;28;20120;-65
2021/12/04 01:02:51;;;;;;;19.27;10.07;;;;;;;0.61;100.00;99473.31;5064177;28;20044;-64
2021/12/04 01:05:19;;;;;;;16.15;9.95;;;;;;;0.67;100.00;99477.44;5059999;28;20056;-64
2021/12/04 01:07:46;;;;;;;15.07;9.98;;;;;;;0.70;100.00;99477.31;5044793;28;21004;-65
2021/12/04 01:10:13;;;;;;;15.77;10.63;;;;;;;0.74;100.00;99473.72;5051567;28;20044;-64
2021/12/04 01:12:40;;;;;;;13.18;9.35;;;;;;;0.70;100.00;99475.56;5068806;28;20056;-65
2021/12/04 01:15:08;;;;;;;14.85;10.07;;;;;;;0.70;100.00;99472.97;5065310;28;20139;-62
2021/12/04 01:17:35;;;;;;;16.33;10.43;;;;;;;0.74;100.00;99464.19;5067394;28;20155;-66
2021/12/04 01:20:03;;;;;;;18.52;11.63;;;;;;;0.74;100.00;99484.91;5064298;28;20124;-65
2021/12/04 01:22:33;;;;;;;15.65;10.13;;;;;;;0.79;100.00;99468.38;5045649;28;20698;-65
2021/12/04 01:25:02;;;;;;;15.52;9.73;;;;;;;0.81;100.00;99472.59;5068418;28;20048;-64
2021/12/04 01:27:30;;;;;;;15.73;11.13;;;;;;;0.73;100.00;99470.28;5048129;28;20048;-64
2021/12/04 01:29:57;;;;;;;16.65;10.60;;;;;;;0.69;100.00;99462.69;5047728;28;20040;-64
2021/12/04 01:32:24;;;;;;;18.85;10.48;;;;;;;0.79;100.00;99466.63;5063276;28;20052;-63
2021/12/04 01:34:51;;;;;;;13.75;10.00;;;;;;;0.75;100.00;99465.03;5064942;28;20049;-64
2021/12/04 01:37:18;;;;;;;20.50;11.13;;;;;;;0.78;100.00;99467.53;5069683;28;20060;-64
2021/12/04 01:39:45;;;;;;;17.48;10.82;;;;;;;0.74;100.00;99465.94;5064306;28;20072;-65
2021/12/04 01:42:13;;;;;;;20.65;11.38;;;;;;;0.67;100.00;99465.31;5074835;28;20420;-64
2021/12/04 01:44:40;;;;;;;16.73;11.38;;;;;;;0.75;100.00;99472.81;5043772;28;20049;-65
2021/12/04 01:47:12;;;;;;;16.05;11.38;;;;;;;0.75;100.00;99465.03;5070957;28;20148;-65
2021/12/04 01:49:39;;;;;;;15.93;11.73;;;;;;;0.82;100.00;99461.34;5070473;28;20048;-65
2021/12/04 01:52:07;;;;;;;13.85;10.25;;;;;;;0.78;100.00;99464.09;5074101;28;20135;-65
2021/12/04 01:54:35;;;;;;;18.00;11.68;;;;;;;0.80;100.00;99467.47;5055633;28;20088;-64
2021/12/04 01:57:04;;;;;;;19.80;11.48;;;;;;;0.78;100.00;99467.53;5061137;28;20075;-66
2021/12/04 01:59:31;;;;;;;17.85;10.00;;;;;;;0.76;100.00;99453.75;5048667;28;20082;-66
2021/12/04 02:01:58;;;;;;;18.40;11.40;;;;;;;0.79;100.00;99458.00;5050345;28;20053;-65
2021/12/04 02:04:25;;;;;;;17.80;11.73;;;;;;;0.75;100.00;99459.84;5068885;28;20049;-65
2021/12/04 02:06:52;;;;;;;20.25;13.27;;;;;;;0.70;100.00;99448.81;5076558;28;20528;-66
2021/12/04 02:09:20;;;;;;;19.27;12.52;;;;;;;0.70;100.00;99459.19;5065357;28;20647;-66
2021/12/04 02:11:47;;;;;;;17.77;11.18;;;;;;;0.78;100.00;99438.19;5066534;28;20052;-66
2021/12/04 02:14:14;;;;;;;20.67;12.15;;;;;;;0.75;100.00;99446.91;5059570;28;20521;-64
2021/12/04 02:16:41;;;;;;;20.17;11.75;;;;;;;0.75;100.00;99432.19;5070657;28;20052;-65
2021/12/04 02:19:08;;;;;;;17.42;11.40;;;;;;;0.70;100.00;99452.25;5054386;28;20402;-66
2021/12/04 02:21:36;;;;;;;17.90;11.95;;;;;;;0.73;100.00;99449.56;5067288;28;20036;-63
2021/12/04 02:24:03;;;;;;;23.50;12.63;;;;;;;0.72;100.00;99450.47;5048378;28;20045;-63
2021/12/04 02:26:30;;;;;;;21.42;12.00;;;;;;;0.75;100.00;99434.78;5066691;28;20581;-66
2021/12/04 02:28:58;;;;;;;16.63;11.88;;;;;;;0.85;100.00;99450.81;5071820;28;20142;-62
2021/12/04 02:31:26;;;;;;;17.92;12.38;;;;;;;0.86;100.00;99441.34;5062656;28;20093;-64
2021/12/04 02:33:53;;;;;;;19.55;11.98;;;;;;;0.83;100.00;99436.25;5048147;28;20526;-67
2021/12/04 02:36:21;;;;;;;20.85;13.85;;;;;;;0.79;100.00;99437.28;5066913;28;20546;-66
2021/12/04 02:38:52;;;;;;;18.90;11.73;;;;;;;0.79;100.00;99427.75;5058870;28;20051;-66
2021/12/04 02:41:20;;;;;;;18.05;13.07;;;;;;;0.81;100.00;99438.06;5067347;28;20578;-64
2021/12/04 02:43:48;;;;;;;19.95;12.25;;;;;;;0.81;100.00;99430.28;5053849;28;20055;-65
2021/12/04 02:46:16;;;;;;;17.88;13.00;;;;;;;0.87;100.00;99432.66;5073638;28;20791;-65
2021/12/04 02:48:45;;;;;;;16.65;11.70;;;;;;;0.83;100.00;99428.50;5067548;28;20052;-66
2021/12/04 02:51:15;;;;;;;16.15;11.85;;;;;;;0.80;100.00;99420.81;5065546;28;20041;-65
2021/12/04 02:53:42;;;;;;;16.40;11.55;;;;;;;0.80;100.00;99420.81;5067140;28;20795;-66
2021/12/04 02:56:11;;;;;;;17.42;12.05;;;;;;;0.79;100.00;99420.00;5061942;28;20131;-65
2021/12/04 02:58:39;;;;;;;22.48;12.30;;;;;;;0.79;100.00;99407.03;5066811;28;20193;-65
2021/12/04 03:01:06;;;;;;;19.45;12.75;;;;;;;0.81;100.00;99406.97;5063492;28;20057;-66
2021/12/04 03:03:34;;;;;;;18.70;12.10;;;;;;;0.86;100.00;99415.44;5062955;28;20466;-65
2021/12/04 03:06:01;;;;;;;18.20;11.63;;;;;;;0.76;100.00;99400.22;5075224;28;20203;-65
2021/12/04 03:08:28;;;;;;;14.32;10.55;;;;;;;0.83;100.00;99397.41;5066284;28;20074;-66
2021/12/04 03:10:56;;;;;;;21.10;13.07;;;;;;;0.85;100.00;99403.34;5067687;28;20129;-66
2021/12/04 03:13:23;;;;;;;16.60;11.68;;;;;;;0.83;100.00;99398.25;5051525;28;20046;-66
2021/12/04 03:16:00;;;;;;;17.90;11.75;;;;;;;0.83;100.00;99385.28;5067568;28;20120;-65
2021/12/04 03:18:27;;;;;;;15.75;11.63;;;;;;;0.87;100.00;99384.28;5066809;28;20056;-65
2021/12/04 03:20:58;;;;;;;15.00;12.07;;;;;;;0.88;100.00;99391.13;5067953;28;20054;-66
2021/12/04 03:23:30;;;;;;;19.23;11.25;;;;;;;0.90;100.00;99393.66;5066518;28;20134;-68
2021/12/04 03:26:01;;;;;;;15.95;11.25;;;;;;;0.85;100.00;99393.00;5067805;28;20055;-66
2021/12/04 03:28:28;;;;;;;16.83;11.93;;;;;;;0.84;100.00;99389.56;5070924;28;20059;-65
2021/12/04 03:31:06;;;;;;;18.40;11.85;;;;;;;0.84;100.00;99386.97;5064302;28;20601;-65
2021/12/04 03:41:51;;;;;;;20.83;12.50;;;;;;;0.95;100.00;99390.00;5073304;28;20071;-65
2021/12/04 03:44:19;;;;;;;18.08;12.27;;;;;;;0.94;100.00;99383.09;5066234;28;20122;-64
2021/12/04 03:46:48;;;;;;;17.70;11.55;;;;;;;0.99;100.00;99386.38;5067926;28;20051;-66
2021/12/04 03:49:15;;;;;;;17.63;11.88;;;;;;;0.94;100.00;99388.28;5068941;28;21197;-66
2021/12/04 03:51:42;;;;;;;14.07;11.07;;;;;;;1.02;100.00;99383.66;5051205;28;20048;-65
2021/12/04 03:54:09;;;;;;;16.13;10.75;;;;;;;1.04;100.00;99390.50;5028874;28;20086;-66
2021/12/04 03:56:37;;;;;;;19.70;12.40;;;;;;;1.04;100.00;99382.75;5065048;28;20052;-65
2021/12/04 03:59:04;;;;;;;15.18;11.75;;;;;;;1.07;100.00;99385.22;5042948;28;20127;-66
2021/12/04 04:01:31;;;;;;;18.77;12.88;;;;;;;1.07;100.00;99380.03;5064492;28;20772;-66
2021/12/04 04:03:58;;;;;;;17.65;11.30;;;;;;;1.13;100.00;99382.41;5063766;28;20059;-65
2021/12/04 04:06:26;;;;;;;15.20;11.52;;;;;;;1.08;100.00;99385.19;5052472;28;20143;-66
2021/12/04 04:08:53;;;;;;;17.50;12.75;;;;;;;1.12;100.00;99385.88;5062518;28;20048;-65
2021/12/04 04:11:20;;;;;;;16.42;12.05;;;;;;;1.11;100.00;99384.19;5065606;28;20052;-65
2021/12/04 04:13:47;;;;;;;16.63;11.38;;;;;;;1.10;100.00;99385.09;5071667;28;20049;-65
2021/12/04 04:16:14;;;;;;;17.58;11.80;;;;;;;1.13;100.00;99372.88;5069569;28;20058;-65
2021/12/04 04:18:42;;;;;;;13.48;10.95;;;;;;;1.16;100.00;99377.06;5061419;28;20088;-65
2021/12/04 04:21:09;;;;;;;17.58;12.32;;;;;;;1.11;100.00;99377.25;5056630;28;20052;-66
2021/12/04 04:23:36;;;;;;;20.38;12.40;;;;;;;1.07;100.00;99374.84;5063326;28;20052;-66
2021/12/04 04:26:03;;;;;;;17.55;12.10;;;;;;;1.03;100.00;99374.13;5062764;28;20559;-66
2021/12/04 04:28:30;;;;;;;15.07;12.13;;;;;;;1.01;100.00;99374.19;5056295;28;20051;-65
2021/12/04 04:30:58;;;;;;;17.30;12.73;;;;;;;1.09;100.00;99373.06;5060486;28;20783;-67
2021/12/04 04:33:25;;;;;;;16.90;12.25;;;;;;;1.10;100.00;99366.97;5065148;28;20171;-65
2021/12/04 04:36:07;;;;;;;19.60;12.65;;;;;;;1.11;100.00;99363.47;5046223;28;20047;-64
2021/12/04 04:39:32;;;;;;;18.33;12.55;;;;;;;1.06;100.00;99361.06;5064681;28;20139;-67
2021/12/04 05:10:17;;;;;;;18.77;12.80;;;;;;;1.05;100.00;99337.81;5064996;28;19920;-65
2021/12/04 05:11:58;;;;;;;17.75;14.27;;;;;;;0.89;100.00;99346.19;5061734;28;20077;-65
2021/12/04 05:14:26;;;;;;;20.65;14.30;;;;;;;0.93;100.00;99342.56;5066732;28;20067;-65
2021/12/04 05:17:02;;;;;;;21.75;14.38;;;;;;;0.93;100.00;99352.09;5064941;28;20059;-66
2021/12/04 05:19:39;;;;;;;17.27;13.00;;;;;;;0.96;100.00;99347.63;5045163;28;20063;-65
2021/12/04 05:22:08;;;;;;;20.77;14.90;;;;;;;0.95;100.00;99338.19;5072459;28;20049;-64
2021/12/04 05:24:36;;;;;;;17.95;13.00;;;;;;;0.97;100.00;99345.88;5067365;28;20463;-65
2021/12/04 05:27:03;;;;;;;21.35;14.55;;;;;;;0.97;100.00;99343.28;5069776;28;20433;-64
2021/12/04 05:29:31;;;;;;;20.15;14.40;;;;;;;1.04;100.00;99341.28;5065290;28;20060;-65
2021/12/04 05:31:58;;;;;;;20.05;14.90;;;;;;;1.13;100.00;99339.19;5050741;28;20505;-64
2021/12/04 05:34:25;;;;;;;19.27;13.63;;;;;;;1.19;100.00;99335.47;5050465;28;20078;-65
2021/12/04 05:36:52;;;;;;;17.83;12.75;;;;;;;1.09;100.00;99335.03;5048656;28;20509;-65
2021/12/04 05:39:20;;;;;;;18.63;14.43;;;;;;;1.01;100.00;99348.28;5066426;28;20056;-65
2021/12/04 05:41:47;;;;;;;19.27;13.13;;;;;;;1.04;100.00;99336.09;5070045;28;20049;-65
2021/12/04 05:44:16;;;;;;;16.88;13.13;;;;;;;1.05;100.00;99348.16;5070536;28;20123;-65
2021/12/04 05:46:47;;;;;;;17.13;13.65;;;;;;;1.00;100.00;99338.00;5051597;28;20048;-65
2021/12/04 05:49:23;;;;;;;19.25;13.20;;;;;;;1.03;100.00;99350.81;5065538;28;20107;-66
2021/12/04 05:52:08;;;;;;;16.55;12.90;;;;;;;1.05;100.00;99343.81;5069711;28;20464;-65
2021/12/04 05:57:09;;;;;;;17.58;14.00;;;;;;;0.95;100.00;99334.75;5068022;28;20099;-65
2021/12/04 05:59:37;;;;;;;18.70;12.60;;;;;;;0.95;100.00;99334.75;5067460;28;20057;-64
2021/12/04 06:02:04;;;;;;;28.85;17.15;;;;;;;1.00;100.00;99341.41;5051214;28;20056;-64
2021/12/04 06:04:31;;;;;;;19.98;14.60;;;;;;;1.05;100.00;99335.22;5064284;28;20068;-65
2021/12/04 06:06:59;;;;;;;28.25;16.15;;;;;;;1.01;100.00;99331.91;5073151;28;20123;-65
2021/12/04 06:09:26;;;;;;;20.70;14.45;;;;;;;1.22;100.00;99333.63;5039668;28;20812;-66
2021/12/04 06:11:54;;;;;;;16.83;13.70;;;;;;;1.24;100.00;99326.59;5051717;28;20135;-65
2021/12/04 06:14:21;;;;;;;18.23;13.00;;;;;;;1.34;100.00;99324.47;5065084;28;20052;-66
2021/12/04 06:16:48;;;;;;;17.33;12.65;;;;;;;1.19;100.00;99330.31;5066853;28;20056;-66
2021/12/04 06:24:47;;;;;;;16.27;11.55;;;;;;;1.04;100.00;99355.09;5065850;28;20041;-66
2021/12/04 06:27:14;;;;;;;16.73;11.90;;;;;;;1.14;100.00;99347.78;5065268;28;20048;-66
2021/12/04 06:29:41;;;;;;;16.85;10.93;;;;;;;1.26;100.00;99347.28;5061828;28;20052;-64
2021/12/04 06:32:09;;;;;;;15.63;10.85;;;;;;;1.15;100.00;99349.47;5055652;28;20140;-66
2021/12/04 06:34:36;;;;;;;13.73;10.35;;;;;;;1.14;100.00;99342.63;5062965;28;20049;-65
2021/12/04 06:37:03;;;;;;;14.15;10.52;;;;;;;1.14;100.00;99335.69;5065553;28;20143;-67
2021/12/04 06:39:30;;;;;;;14.18;10.57;;;;;;;1.14;100.00;99334.84;5065566;28;20056;-65
2021/12/04 06:41:57;;;;;;;13.90;10.48;;;;;;;1.05;100.00;99335.22;5048843;28;20151;-65
2021/12/04 06:44:26;;;;;;;16.85;11.50;;;;;;;1.05;100.00;99341.22;5063469;28;20051;-65
2021/12/04 06:46:54;;;;;;;17.73;11.13;;;;;;;1.04;100.00;99341.28;5070268;28;20581;-65
2021/12/04 06:49:26;;;;;;;15.93;10.80;;;;;;;0.98;100.00;99338.03;5081673;22;20079;-61
2021/12/04 06:51:57;;;;;;;12.15;10.80;;;;;;;0.94;100.00;99339.06;5119939;27;20047;-60
2021/12/04 06:54:32;;;;;;;15.25;11.00;;;;;;;1.07;100.00;99339.41;5122198;27;20075;-61
2021/12/04 06:57:00;;;;;;;14.20;10.50;;;;;;;1.04;100.00;99333.50;5109119;27;20463;-62
2021/12/04 06:59:30;;;;;;;18.73;11.57;;;;;;;1.11;100.00;99333.19;5124332;27;20181;-62
2021/12/04 07:01:58;;;;;;;19.90;11.10;;;;;;;1.07;100.00;99338.56;5124691;27;20104;-62
2021/12/04 07:04:34;;;;;;;17.65;10.90;;;;;;;1.01;100.00;99342.25;5121921;27;20050;-60
2021/12/04 07:07:02;;;;;;;16.60;10.63;;;;;;;1.05;100.00;99338.66;5122686;27;20105;-63
2021/12/04 07:09:29;;;;;;;15.73;10.25;;;;;;;1.05;100.00;99330.03;5123196;27;20039;-62
2021/12/04 07:11:57;;;;;;;17.00;11.65;;;;;;;0.97;100.00;99333.75;5126245;27;20138;-61
2021/12/04 07:14:24;;;;;;;17.33;12.52;;;;;;;0.90;100.00;99334.06;5120940;27;20047;-63
2021/12/04 07:16:52;;;;;;;15.38;11.60;;;;;;;1.02;100.00;99341.34;5108530;27;20681;-63
2021/12/04 07:19:19;;;;;;;15.63;10.75;;;;;;;1.03;100.00;99343.03;5123456;27;20053;-62
2021/12/04 07:21:46;;;;;;;16.63;11.18;;;;;;;1.05;100.00;99338.66;5126510;27;20050;-63
2021/12/04 07:24:14;;;;;;;16.05;11.90;;;;;;;0.99;100.00;99339.75;5126493;27;20047;-62
2021/12/04 07:26:42;;;;;;;20.02;11.10;;;;;;;1.10;100.00;99336.69;5125015;27;20051;-59
2021/12/04 07:29:09;;;;;;;19.90;11.35;;;;;;;1.13;100.00;99338.34;5104919;27;20518;-59
2021/12/04 07:31:39;;;;;;;16.88;10.75;;;;;;;1.05;100.00;99337.81;5107818;27;20452;-63
2021/12/04 07:34:08;;;;;;;15.75;10.38;;;;;;;1.14;100.00;99343.44;5123922;27;20519;-61
2021/12/04 07:36:35;;;;;;;15.75;9.77;;;;;;;1.14;100.00;99330.50;5130357;27;20067;-62
2021/12/04 07:39:04;;;;;;;14.02;9.93;;;;;;;1.21;100.00;99333.66;5126267;27;20058;-61
2021/12/04 07:41:31;;;;;;;13.98;9.95;;;;;;;1.22;100.00;99325.00;5109632;27;20134;-61
2021/12/04 07:43:58;;;;;;;14.93;10.18;;;;;;;1.24;100.00;99339.56;5124648;27;20128;-62
2021/12/04 07:46:25;;;;;;;14.68;10.38;;;;;;;1.27;100.00;99336.03;5130534;27;20051;-63
2021/12/04 07:48:52;;;;;;;13.38;10.15;;;;;;;1.23;100.00;99337.06;5122079;27;20053;-62
2021/12/04 07:51:19;;;;;;;14.07;10.18;;;;;;;1.29;100.00;99334.19;5125746;27;20051;-61
2021/12/04 07:53:47;;;;;;;14.00;9.77;;;;;;;1.36;100.00;99346.00;5132342;27;20047;-61
2021/12/04 07:56:15;;;;;;;12.40;8.52;;;;;;;1.25;100.00;99343.00;5134319;27;20101;-62
2021/12/04 07:58:45;;;;;;;15.02;8.77;;;;;;;1.31;100.00;99345.34;5122673;27;20047;-61
2021/12/04 08:01:13;;;;;;;11.77;9.20;;;;;;;1.31;100.00;99347.13;5118520;27;20043;-61
2021/12/04 08:03:40;;;;;;;11.32;8.18;;;;;;;1.31;100.00;99339.34;5121118;27;20057;-60
2021/12/04 08:06:07;;;;;;;14.02;8.77;;;;;;;1.26;100.00;99347.28;5125544;27;20055;-60
2021/12/04 08:08:34;;;;;;;11.18;8.13;;;;;;;1.29;100.00;99346.31;5121075;27;20051;-60
2021/12/04 08:11:04;;;;;;;16.05;8.80;;;;;;;1.24;100.00;99346.50;5122881;27;20047;-60
2021/12/04 08:13:31;;;;;;;13.15;8.50;;;;;;;1.30;100.00;99348.84;5128250;27;20146;-62
2021/12/04 08:15:58;;;;;;;14.27;8.65;;;;;;;1.36;100.00;99343.41;5123310;27;20047;-65
2021/12/04 08:18:26;;;;;;;13.73;8.48;;;;;;;1.37;100.00;99345.09;5126489;27;20161;-61
2021/12/04 08:20:53;;;;;;;15.38;8.27;;;;;;;1.27;100.00;99338.59;5123546;27;20076;-62
2021/12/04 08:23:21;;;;;;;13.57;8.40;;;;;;;1.38;100.00;99345.94;5117105;27;20074;-61
2021/12/04 08:25:48;;;;;;;15.88;9.23;;;;;;;1.40;100.00;99341.53;5113910;27;20066;-62
2021/12/04 08:28:15;;;;;;;14.15;9.15;;;;;;;1.39;100.00;99345.84;5117566;27;20088;-61
2021/12/04 08:30:42;;;;;;;14.85;8.40;;;;;;;1.46;100.00;99341.28;5121251;27;20051;-60
2021/12/04 08:33:11;;;;;;;13.15;8.30;;;;;;;1.59;100.00;99349.38;5123459;27;20142;-61
2021/12/04 08:35:39;;;;;;;9.45;7.47;;;;;;;1.55;100.00;99353.00;5130490;27;20063;-60
2021/12/04 08:38:08;;;;;;;12.02;9.25;;;;;;;1.60;100.00;99359.69;5121918;27;20059;-60
2021/12/04 08:40:39;;;;;;;10.80;8.23;;;;;;;1.39;100.00;99358.81;5123051;27;20334;-61
2021/12/04 08:43:07;;;;;;;13.55;8.30;;;;;;;1.36;100.00;99361.56;5102660;28;20047;-62
2021/12/04 08:45:34;;;;;;;11.70;7.07;;;;;;;1.42;100.00;99353.53;5124489;27;20096;-62
2021/12/04 08:48:01;;;;;;;14.25;8.27;;;;;;;1.52;100.00;99354.81;5117901;27;20054;-61
2021/12/04 08:50:30;;;;;;;9.45;7.63;;;;;;;1.60;100.00;99343.28;5120789;27;20050;-62
2021/12/04 08:52:59;;;;;;;13.75;8.65;;;;;;;1.59;100.00;99350.22;5120433;27;20397;-60
2021/12/04 08:55:28;;;;;;;15.13;7.85;;;;;;;1.65;100.00;99356.88;5125209;27;20075;-61
2021/12/04 08:57:55;;;;;;;13.48;8.18;;;;;;;1.71;100.00;99361.81;5122277;27;20047;-61
2021/12/04 09:00:28;;;;;;;10.68;8.13;;;;;;;1.71;100.00;99359.22;5117935;27;20046;-62
2021/12/04 09:02:56;;;;;;;13.13;8.20;;;;;;;1.68;100.00;99355.00;5115867;27;20049;-61
2021/12/04 09:05:24;;;;;;;12.15;8.40;;;;;;;1.70;100.00;99355.78;5124099;27;20070;-61
2021/12/04 09:07:52;;;;;;;15.07;8.57;;;;;;;1.72;100.00;99361.75;5129123;27;20089;-61
2021/12/04 09:10:20;;;;;;;11.77;8.13;;;;;;;1.71;100.00;99356.63;5123389;27;20139;-61
2021/12/04 09:12:48;;;;;;;11.35;8.80;;;;;;;1.68;100.00;99367.16;5124374;27;20065;-61
2021/12/04 09:15:19;;;;;;;13.73;9.10;;;;;;;1.66;100.00;99366.34;5102605;28;20054;-61
2021/12/04 09:17:46;;;;;;;11.65;8.43;;;;;;;1.71;100.00;99364.41;5106903;28;20051;-61
2021/12/04 09:20:16;;;;;;;13.65;8.93;;;;;;;1.71;100.00;99369.59;5120367;27;20149;-60
2021/12/04 09:22:44;;;;;;;15.40;10.15;;;;;;;1.78;100.00;99371.03;5119723;27;20071;-62
2021/12/04 09:25:16;;;;;;;13.50;9.07;;;;;;;1.76;100.00;99378.88;5117630;28;20043;-62
2021/12/04 10:03:49;;;;;;;15.52;11.07;;;;;;;1.68;100.00;99352.41;5121391;27;20562;-61
2021/12/04 10:20:55;;;;;;;19.23;11.18;;;;;;;1.92;100.00;99319.38;5124521;27;20051;-61
2021/12/04 10:34:28;;;;;;;14.05;11.30;;;;;;;1.76;100.00;99310.59;5124451;27;20061;-62
2021/12/04 10:37:06;;;;;;;17.42;12.90;;;;;;;1.65;100.00;99320.56;5127044;27;20053;-62
2021/12/04 10:39:34;;;;;;;13.85;11.15;;;;;;;1.72;100.00;99311.63;5125683;27;20054;-62
2021/12/04 10:42:04;;;;;;;14.90;11.05;;;;;;;1.81;100.00;99316.41;5129484;27;20122;-61
2021/12/04 10:44:32;;;;;;;15.13;11.25;;;;;;;1.92;100.00;99311.56;5107448;27;20060;-62
2021/12/04 10:47:10;;;;;;;13.98;10.55;;;;;;;1.94;100.00;99304.59;5120732;27;20470;-62
2021/12/04 10:52:24;;;;;;;13.88;10.50;;;;;;;1.86;100.00;99296.28;5124044;27;20051;-62
2021/12/04 10:55:15;;;;;;;13.30;9.80;;;;;;;1.93;100.00;99291.66;5126466;27;20046;-60
2021/12/04 11:00:36;;;;;;;13.25;9.68;;;;;;;1.96;100.00;99286.34;5127855;27;20526;-61
2021/12/04 11:18:41;;;;;;;13.73;10.93;;;;;;;1.91;100.00;99264.94;5125657;27;20051;-62
2021/12/04 11:20:13;;;;;;;14.65;10.85;;;;;;;2.05;100.00;99261.72;5121677;27;20082;-62
2021/12/04 11:39:21;;;;;;;13.02;10.68;;;;;;;2.37;100.00;99226.44;5126887;27;20074;-62
2021/12/04 11:44:44;;;;;;;15.05;10.80;;;;;;;2.40;100.00;99223.72;5100292;27;20162;-60
2021/12/04 11:47:12;;;;;;;13.00;11.00;;;;;;;2.42;100.00;99220.13;5128446;27;20503;-62
2021/12/04 11:49:39;;;;;;;13.75;10.88;;;;;;;2.44;100.00;99223.50;5121616;27;20078;-62
2021/12/04 11:52:15;;;;;;;14.60;11.60;;;;;;;2.35;100.00;99223.09;5124160;27;20050;-61
2021/12/04 11:54:53;;;;;;;15.65;11.27;;;;;;;2.37;100.00;99229.06;5123968;27;20058;-62
2021/12/04 11:57:34;;;;;;;14.57;11.82;;;;;;;2.31;100.00;99212.00;5121261;27;20082;-61
2021/12/04 12:00:23;;;;;;;14.88;11.80;;;;;;;2.36;100.00;99223.03;5117736;27;20055;-61
2021/12/04 12:02:52;;;;;;;15.77;12.13;;;;;;;2.39;100.00;99229.84;5121655;27;20054;-61
2021/12/04 12:05:21;;;;;;;15.73;12.70;;;;;;;2.26;100.00;99216.59;5121824;27;20130;-60
2021/12/04 12:07:54;;;;;;;16.50;12.02;;;;;;;2.34;100.00;99216.19;5115010;27;20048;-58
2021/12/04 12:10:25;;;;;;;17.58;12.43;;;;;;;2.37;100.00;99211.72;5121379;27;20538;-61
2021/12/04 12:13:04;;;;;;;16.40;13.52;;;;;;;2.37;100.00;99209.13;5127675;27;20075;-62
2021/12/04 12:15:35;;;;;;;16.15;13.20;;;;;;;2.28;100.00;99205.19;5121652;27;20491;-61
2021/12/04 12:18:16;;;;;;;17.90;13.63;;;;;;;2.35;100.00;99195.38;5126116;27;20043;-62
2021/12/04 12:20:49;;;;;;;16.95;12.35;;;;;;;2.32;100.00;99198.09;5119513;27;20047;-62
2021/12/04 12:23:20;;;;;;;16.23;12.63;;;;;;;2.28;100.00;99184.44;5107094;27;20129;-61
2021/12/04 12:26:00;;;;;;;16.63;12.77;;;;;;;2.36;100.00;99191.84;5108982;27;20047;-61
2021/12/04 12:37:32;;;;;;;13.98;11.18;;;;;;;2.52;100.00;99192.81;5123369;27;20121;-62
2021/12/04 12:40:05;;;;;;;12.80;11.38;;;;;;;2.56;100.00;99184.84;5120867;27;20376;-63
2021/12/04 12:42:41;;;;;;;13.85;11.65;;;;;;;2.58;100.00;99181.28;5128324;27;20043;-61
2021/12/04 12:45:19;;;;;;;;;;;;;;;2.60;100.00;99175.97;5102454;27;20100;-63
2021/12/04 12:47:56;;;;;;;16.08;11.68;;;;;;;2.57;100.00;99178.72;5126137;27;20010;-63
2021/12/04 12:50:52;;;;;;;16.83;12.02;;;;;;;2.49;100.00;99179.13;5087422;28;20053;-61
2021/12/04 12:53:28;;;;;;;14.40;12.13;;;;;;;2.43;100.00;99182.00;5121490;27;20118;-63
2021/12/04 12:56:08;;;;;;;13.80;11.35;;;;;;;2.47;100.00;99183.53;5124923;27;20051;-61
2021/12/04 12:58:42;;;;;;;14.55;10.18;;;;;;;2.44;100.00;99181.09;5121605;27;20130;-62
2021/12/04 13:12:42;;;;;;;14.80;10.90;;;;;;;2.32;100.00;99189.47;5121448;27;20518;-64
2021/12/04 13:15:10;;;;;;;13.50;9.82;;;;;;;2.29;100.00;99188.69;5124804;27;20047;-62
2021/12/04 13:17:40;;;;;;;12.82;9.32;;;;;;;2.23;100.00;99190.75;5123771;27;20054;-63
2021/12/04 13:20:07;;;;;;;10.48;8.25;;;;;;;2.23;100.00;99198.56;5122583;27;20704;-61
2021/12/04 13:22:35;;;;;;;10.10;7.82;;;;;;;2.24;100.00;99198.47;5140949;22;20110;-66
2021/12/04 13:25:08;;;;;;;9.98;7.80;;;;;;;2.20;100.00;99196.94;5104987;28;20352;-66
2021/12/04 13:30:07;;;;;;;11.05;8.00;;;;;;;2.21;100.00;99205.59;5093943;28;20050;-64
2021/12/04 13:32:40;;;;;;;9.98;7.70;;;;;;;2.18;100.00;99205.72;5095516;28;20052;-64
2021/12/04 13:35:13;;;;;;;10.20;8.02;;;;;;;2.13;100.00;99208.53;5090320;28;20522;-65
2021/12/04 13:37:41;;;;;;;11.13;8.40;;;;;;;2.08;100.00;99199.28;5105007;28;20128;-65
2021/12/04 13:40:12;;;;;;;13.80;11.15;;;;;;;2.15;100.00;99198.91;5100938;28;20916;-64
2021/12/04 13:42:40;;;;;;;14.98;10.80;;;;;;;2.26;100.00;99194.06;5105065;28;20047;-65
2021/12/04 13:45:13;;;;;;;14.75;11.10;;;;;;;2.29;100.00;99196.50;5098878;28;20178;-65
2021/12/04 13:47:42;;;;;;;13.15;11.10;;;;;;;2.23;100.00;99193.34;5089189;28;20130;-64
2021/12/04 13:53:01;;;;;;;15.25;10.43;;;;;;;2.26;100.00;99175.88;5105435;28;20582;-65
2021/12/04 13:55:34;;;;;;;13.50;10.18;;;;;;;2.35;100.00;99179.78;5107052;28;20059;-65
2021/12/04 13:58:03;;;;;;;15.52;11.13;;;;;;;2.31;100.00;99170.47;5087297;28;20158;-65
2021/12/04 14:00:30;;;;;;;14.52;11.82;;;;;;;2.35;100.00;99169.41;5106174;27;20051;-65
2021/12/04 14:02:57;;;;;;;16.42;12.55;;;;;;;2.35;100.00;99168.56;5087412;28;20051;-65
2021/12/04 14:05:25;;;;;;;17.15;12.80;;;;;;;2.36;100.00;99170.25;5106211;28;20097;-66
2021/12/04 14:07:56;;;;;;;20.08;14.40;;;;;;;2.28;100.00;99170.59;5105976;27;20046;-65
2021/12/04 14:10:27;;;;;;;19.23;14.60;;;;;;;2.33;100.00;99175.56;5084649;27;20137;-64
2021/12/04 14:12:54;;;;;;;20.85;14.68;;;;;;;2.32;100.00;99168.72;5115157;27;20582;-65
2021/12/04 14:15:22;;;;;;;18.80;14.30;;;;;;;2.31;100.00;99167.88;5101317;28;20130;-66
2021/12/04 14:17:56;;;;;;;20.83;15.55;;;;;;;2.32;100.00;99169.53;5083286;28;20101;-65
2021/12/04 14:20:24;;;;;;;20.80;15.15;;;;;;;2.39;100.00;99172.69;5089032;28;20076;-65
2021/12/04 14:22:53;;;;;;;19.73;15.18;;;;;;;2.41;100.00;99163.91;5080218;28;20048;-65
2021/12/04 14:25:22;;;;;;;19.90;14.80;;;;;;;2.40;100.00;99162.22;5086096;28;20055;-65
2021/12/04 14:27:51;;;;;;;22.40;15.77;;;;;;;2.36;100.00;99159.84;5105303;27;20048;-65
2021/12/04 14:30:22;;;;;;;22.13;15.13;;;;;;;2.37;100.00;99140.75;5097802;27;20047;-66
2021/12/04 14:32:53;;;;;;;24.45;16.38;;;;;;;2.33;100.00;99149.59;5115242;27;20054;-69